Time;durP1;ratioP1;P1;durP2;ratioP2;P2;SDS_P1;SDS_P2;PMS_P1;PMS_P2;Temp;Humidity;BMP_temperature;BMP_pressure;BME280_temperature;BME280_humidity;BME280_pressure;Samples;Min_cycle;Max_cycle;Signal;HPM_P1;HPM_P2
2022/11/05 00:19:06;;;;;;;8.27;4.67;;;14.60;99.90;;;;;;7729317;75;26237;-56
2022/11/05 00:29:09;;;;;;;8.27;5.00;;;14.60;99.90;;;;;;7757308;75;27032;-55
2022/11/05 00:39:11;;;;;;;9.37;5.20;;;14.60;99.90;;;;;;7752363;76;26346;-54
2022/11/05 00:49:29;;;;;;;7.20;4.50;;;14.60;99.90;;;;;;7753524;75;26766;-52
2022/11/05 00:59:31;;;;;;;7.00;4.43;;;14.60;99.90;;;;;;7749283;75;26342;-53
2022/11/05 01:09:34;;;;;;;7.80;5.13;;;14.60;99.90;;;;;;7753444;76;26921;-55
2022/11/05 01:19:38;;;;;;;10.07;5.80;;;14.60;99.90;;;;;;7743856;75;26388;-56
2022/11/05 01:29:41;;;;;;;9.27;5.30;;;14.60;99.90;;;;;;7732285;76;26331;-55
2022/11/05 01:39:43;;;;;;;9.83;5.83;;;14.50;99.90;;;;;;7753759;75;26251;-54
2022/11/05 01:49:46;;;;;;;9.50;6.43;;;14.60;99.90;;;;;;7744306;76;26343;-53
2022/11/05 01:59:51;;;;;;;11.00;6.40;;;14.60;99.90;;;;;;7749911;75;26272;-55
2022/11/05 02:09:57;;;;;;;7.50;4.03;;;14.50;99.90;;;;;;7747216;75;26241;-55
2022/11/05 02:20:17;;;;;;;9.27;4.70;;;14.50;99.90;;;;;;7745731;75;26392;-55
2022/11/05 02:30:34;;;;;;;7.17;4.40;;;14.50;99.90;;;;;;7751526;75;26241;-54
2022/11/05 02:40:45;;;;;;;4.10;3.30;;;14.50;99.90;;;;;;7735936;75;26338;-55
2022/11/05 02:51:15;;;;;;;7.07;3.20;;;14.50;99.90;;;;;;7745141;76;26384;-55
2022/11/05 03:01:17;;;;;;;4.33;3.00;;;14.50;99.90;;;;;;7750080;76;26296;-54
2022/11/05 03:11:26;;;;;;;3.27;2.70;;;14.50;99.90;;;;;;7754980;76;27136;-55
2022/11/05 03:21:49;;;;;;;3.73;2.37;;;14.50;99.90;;;;;;7744641;75;26284;-56
2022/11/05 03:31:54;;;;;;;2.77;2.27;;;14.40;99.90;;;;;;7749112;76;26325;-54
2022/11/05 03:41:58;;;;;;;5.07;2.30;;;14.40;99.90;;;;;;7755695;75;26738;-56
2022/11/05 03:52:07;;;;;;;4.10;2.50;;;14.40;99.90;;;;;;7751292;76;26286;-54
2022/11/05 04:02:12;;;;;;;4.23;2.90;;;14.40;99.90;;;;;;7749642;75;26346;-53
2022/11/05 04:32:58;;;;;;;4.77;3.37;;;14.40;99.90;;;;;;7764961;75;26322;-56
2022/11/05 04:43:01;;;;;;;5.17;3.30;;;14.30;99.90;;;;;;7762894;75;26284;-55
2022/11/05 04:53:03;;;;;;;5.70;3.77;;;14.30;99.90;;;;;;7764851;75;26293;-54
2022/11/05 05:03:06;;;;;;;5.80;4.07;;;14.30;99.90;;;;;;7742183;76;26294;-53
2022/11/05 05:13:11;;;;;;;6.50;4.17;;;14.30;99.90;;;;;;7733399;75;26256;-54
2022/11/05 05:23:13;;;;;;;6.77;3.77;;;14.30;99.90;;;;;;7750090;75;26326;-55
2022/11/05 05:33:16;;;;;;;7.60;3.63;;;14.30;99.90;;;;;;7726514;76;26807;-56
2022/11/05 05:43:18;;;;;;;5.80;3.77;;;14.30;99.90;;;;;;7711720;76;26346;-58
2022/11/05 05:53:21;;;;;;;7.60;4.30;;;14.30;99.90;;;;;;7681546;76;26338;-56
2022/11/05 06:03:23;;;;;;;6.70;4.20;;;14.30;99.90;;;;;;7702068;76;26315;-55
2022/11/05 06:13:26;;;;;;;6.80;4.57;;;14.30;99.90;;;;;;7712559;76;27346;-55
2022/11/05 06:23:32;;;;;;;9.97;5.40;;;14.30;99.90;;;;;;7718449;76;26299;-57
2022/11/05 06:33:34;;;;;;;6.70;4.30;;;14.30;99.90;;;;;;7699553;77;26302;-56
2022/11/05 06:43:37;;;;;;;6.83;4.17;;;14.30;99.90;;;;;;7640469;77;26306;-56
2022/11/05 06:53:40;;;;;;;5.07;3.90;;;14.30;99.90;;;;;;7642584;77;26314;-54
2022/11/05 07:03:44;;;;;;;6.03;3.53;;;14.30;99.90;;;;;;7647539;77;26255;-55
2022/11/05 07:13:46;;;;;;;8.73;3.80;;;14.30;99.90;;;;;;7690542;77;26271;-55
2022/11/05 07:23:49;;;;;;;7.30;3.80;;;14.30;99.90;;;;;;7663007;77;26874;-56
2022/11/05 07:33:51;;;;;;;10.93;4.07;;;14.30;99.90;;;;;;7661864;77;26337;-56
2022/11/05 07:43:54;;;;;;;6.60;3.63;;;14.30;99.90;;;;;;7640540;77;26733;-56
2022/11/05 07:53:56;;;;;;;10.70;3.93;;;14.30;99.90;;;;;;7681673;77;26319;-55
2022/11/05 08:03:59;;;;;;;6.70;4.40;;;14.40;99.90;;;;;;7652737;77;26244;-56
2022/11/05 08:14:01;;;;;;;9.37;4.87;;;14.30;99.90;;;;;;7652801;77;26249;-56
2022/11/05 08:24:04;;;;;;;11.10;5.20;;;14.30;99.90;;;;;;7691767;77;26765;-54
2022/11/05 08:34:06;;;;;;;8.73;4.07;;;14.50;99.90;;;;;;7746151;77;26998;-56
2022/11/05 08:44:09;;;;;;;14.77;5.93;;;14.70;99.90;;;;;;7727572;77;26279;-57
2022/11/05 08:54:12;;;;;;;9.67;5.23;;;14.90;99.90;;;;;;7736079;76;26271;-55
2022/11/05 09:04:14;;;;;;;9.67;4.73;;;15.00;99.90;;;;;;7745269;75;26288;-55
2022/11/05 09:14:17;;;;;;;11.00;5.60;;;15.20;99.90;;;;;;7722975;76;26376;-53
2022/11/05 09:24:19;;;;;;;16.03;5.67;;;15.30;99.90;;;;;;7739777;77;26770;-55
2022/11/05 09:34:22;;;;;;;12.63;5.60;;;15.40;99.90;;;;;;7718997;77;26345;-56
2022/11/05 09:44:28;;;;;;;13.17;5.23;;;15.60;99.90;;;;;;7738487;77;26766;-58
2022/11/05 09:54:32;;;;;;;20.60;6.17;;;15.60;99.90;;;;;;7736519;76;26336;-58
2022/11/05 10:04:34;;;;;;;33.40;10.33;;;15.60;99.90;;;;;;7744391;75;26770;-58
2022/11/05 10:14:40;;;;;;;31.77;7.20;;;15.60;99.90;;;;;;7741384;77;27045;-58
2022/11/05 10:24:48;;;;;;;28.63;6.63;;;15.70;99.90;;;;;;7711327;77;26287;-57
2022/11/05 10:34:51;;;;;;;14.33;6.10;;;15.70;99.90;;;;;;7731750;77;26353;-59
2022/11/05 10:45:05;;;;;;;45.97;7.27;;;15.80;99.90;;;;;;7737487;77;26337;-57
2022/11/05 10:55:17;;;;;;;511.93;31.73;;;15.90;99.90;;;;;;7675625;77;26316;-63
2022/11/05 11:05:35;;;;;;;56.50;5.63;;;16.00;99.90;;;;;;7659133;77;26314;-55
2022/11/05 11:15:37;;;;;;;30.33;4.30;;;15.90;99.90;;;;;;7724525;77;26351;-54
2022/11/05 11:25:43;;;;;;;12.23;2.73;;;15.80;99.90;;;;;;7732031;75;27357;-53
2022/11/05 11:35:46;;;;;;;9.83;2.63;;;15.90;99.90;;;;;;7695274;76;26263;-55
2022/11/05 11:45:52;;;;;;;7.10;2.50;;;15.80;99.90;;;;;;7664474;77;26345;-55
2022/11/05 11:56:13;;;;;;;11.00;3.03;;;15.90;99.90;;;;;;7691584;77;26252;-55
2022/11/05 12:06:31;;;;;;;9.10;2.63;;;15.90;99.90;;;;;;7732018;77;26310;-54
2022/11/05 12:16:45;;;;;;;4.43;2.03;;;15.90;99.90;;;;;;7736485;77;26361;-55
2022/11/05 12:26:57;;;;;;;13.17;3.60;;;15.90;99.90;;;;;;7723762;77;26288;-54
2022/11/05 12:37:11;;;;;;;14.03;4.53;;;15.90;99.90;;;;;;7734755;77;26353;-54
2022/11/05 12:47:41;;;;;;;16.73;4.37;;;15.90;99.90;;;;;;7733871;76;26311;-55
2022/11/05 12:57:47;;;;;;;24.20;6.97;;;15.90;99.90;;;;;;7729784;77;26313;-56
2022/11/05 13:07:58;;;;;;;34.57;9.37;;;15.90;99.90;;;;;;7733728;75;26726;-58
2022/11/05 13:18:03;;;;;;;24.40;7.27;;;15.90;99.90;;;;;;7720763;76;26831;-56
2022/11/05 13:28:26;;;;;;;18.80;6.23;;;15.90;99.90;;;;;;7724673;77;26330;-55
2022/11/05 13:48:54;;;;;;;25.00;6.40;;;15.90;99.90;;;;;;7724890;77;26279;-56
2022/11/05 13:58:59;;;;;;;17.13;5.97;;;15.90;99.90;;;;;;7735814;77;26304;-56
2022/11/05 14:09:05;;;;;;;10.90;4.10;;;15.90;99.90;;;;;;7744015;76;26710;-53
2022/11/05 14:19:29;;;;;;;35.30;6.07;;;15.80;99.90;;;;;;7745990;76;26699;-52
2022/11/05 14:29:42;;;;;;;28.03;3.60;;;15.80;99.90;;;;;;7741977;75;26244;-55
2022/11/05 14:39:46;;;;;;;12.20;3.40;;;15.80;99.90;;;;;;7742018;77;26237;-56
2022/11/05 14:49:52;;;;;;;18.53;3.47;;;15.70;99.90;;;;;;7731256;77;27056;-55
2022/11/05 14:59:59;;;;;;;9.30;3.60;;;15.70;99.90;;;;;;7727608;76;26346;-53
2022/11/05 15:10:04;;;;;;;7.40;2.50;;;15.70;99.90;;;;;;7733796;77;26233;-55
2022/11/05 15:20:21;;;;;;;8.63;2.70;;;15.60;99.90;;;;;;7741728;76;26358;-57
2022/11/05 15:30:24;;;;;;;11.67;2.67;;;15.60;99.90;;;;;;7733320;77;26397;-55
2022/11/05 15:40:30;;;;;;;21.00;3.13;;;15.60;99.90;;;;;;7723686;75;26327;-55
2022/11/05 15:50:32;;;;;;;14.20;3.17;;;15.60;99.90;;;;;;7740169;77;26284;-55
2022/11/05 16:00:36;;;;;;;19.60;4.57;;;15.40;99.90;;;;;;7740833;77;26351;-53
2022/11/05 16:10:40;;;;;;;14.33;3.03;;;15.40;99.90;;;;;;7684349;77;26778;-55
2022/11/05 16:20:46;;;;;;;5.20;2.27;;;15.30;99.90;;;;;;7670165;77;26312;-53
2022/11/05 16:30:56;;;;;;;10.07;2.77;;;15.30;99.90;;;;;;7703848;76;26354;-54
2022/11/05 16:40:59;;;;;;;6.57;2.33;;;15.30;99.90;;;;;;7739290;77;26462;-54
2022/11/05 16:51:01;;;;;;;13.83;3.13;;;15.30;99.90;;;;;;7737802;77;26397;-55
2022/11/05 17:01:07;;;;;;;10.90;3.30;;;15.30;99.90;;;;;;7724913;77;26308;-53
2022/11/05 17:11:14;;;;;;;18.87;3.87;;;15.40;99.90;;;;;;7736971;77;26644;-56
2022/11/05 17:21:17;;;;;;;18.20;4.13;;;15.30;99.90;;;;;;7738805;76;26328;-55
2022/11/05 17:31:19;;;;;;;14.37;4.17;;;15.30;99.90;;;;;;7732039;77;27298;-54
2022/11/05 17:41:23;;;;;;;25.47;5.03;;;15.30;99.90;;;;;;7721552;75;26418;-57
2022/11/05 17:51:26;;;;;;;23.83;5.37;;;15.20;99.90;;;;;;7739927;77;26292;-51
2022/11/05 18:01:31;;;;;;;15.03;4.17;;;15.20;99.90;;;;;;7697156;77;26852;-54
2022/11/05 18:11:34;;;;;;;12.97;3.83;;;15.10;99.90;;;;;;7725498;77;26299;-53
2022/11/05 18:21:37;;;;;;;14.03;4.97;;;15.10;99.90;;;;;;7730232;77;26379;-51
2022/11/05 18:31:39;;;;;;;14.87;4.57;;;15.10;99.90;;;;;;7726406;77;26804;-53
2022/11/05 18:41:42;;;;;;;9.90;4.40;;;15.00;99.90;;;;;;7719041;77;26308;-51
2022/11/05 18:51:44;;;;;;;13.67;4.70;;;15.00;99.90;;;;;;7719162;77;26288;-53
2022/11/05 19:01:48;;;;;;;7.90;3.93;;;14.90;99.90;;;;;;7733946;77;26304;-53
2022/11/05 19:11:51;;;;;;;8.33;4.03;;;14.90;99.90;;;;;;7737730;76;26386;-53
2022/11/05 19:21:53;;;;;;;11.03;5.70;;;14.90;99.90;;;;;;7738637;77;26332;-55
2022/11/05 19:31:56;;;;;;;11.97;5.30;;;14.80;99.90;;;;;;7732854;77;26312;-54
2022/11/05 19:41:58;;;;;;;10.37;5.03;;;14.80;99.90;;;;;;7735772;76;26280;-53
2022/11/05 19:52:01;;;;;;;24.20;5.57;;;14.80;99.90;;;;;;7735684;77;26311;-52
2022/11/05 20:02:04;;;;;;;12.17;4.53;;;14.80;99.90;;;;;;7718718;75;27109;-53
2022/11/05 20:12:07;;;;;;;11.97;4.70;;;14.70;99.90;;;;;;7740277;75;26359;-53
2022/11/05 20:22:09;;;;;;;10.10;4.20;;;14.70;99.90;;;;;;7745126;77;26335;-52
2022/11/05 20:32:13;;;;;;;13.53;4.87;;;14.70;99.90;;;;;;7726182;75;26353;-52
2022/11/05 20:42:16;;;;;;;9.97;4.53;;;14.70;99.90;;;;;;7720199;77;26379;-53
2022/11/05 20:52:18;;;;;;;13.13;3.93;;;14.60;99.90;;;;;;7730502;77;26358;-51
2022/11/05 21:02:21;;;;;;;9.33;3.47;;;14.60;99.90;;;;;;7715785;77;26777;-52
2022/11/05 21:12:23;;;;;;;11.37;3.87;;;14.60;99.90;;;;;;7721821;77;26546;-50
2022/11/05 21:22:26;;;;;;;11.97;4.27;;;14.70;99.90;;;;;;7724522;77;26327;-53
2022/11/05 21:32:28;;;;;;;11.33;4.70;;;14.60;99.90;;;;;;7739932;77;26374;-55
2022/11/05 21:42:31;;;;;;;11.47;6.67;;;14.70;99.90;;;;;;7740234;77;27414;-52
2022/11/05 22:02:54;;;;;;;9.87;4.50;;;14.60;99.90;;;;;;7712193;77;26363;-52
2022/11/05 22:12:56;;;;;;;9.40;4.53;;;14.60;99.90;;;;;;7734948;77;26413;-53
2022/11/05 22:22:58;;;;;;;9.30;4.63;;;14.60;99.90;;;;;;7724482;77;26381;-53
2022/11/05 22:33:02;;;;;;;8.73;3.90;;;14.50;99.90;;;;;;7740223;75;26354;-54
2022/11/05 22:43:04;;;;;;;9.47;3.63;;;14.50;99.90;;;;;;7744358;77;26322;-53
2022/11/05 22:53:07;;;;;;;11.60;4.80;;;14.50;99.90;;;;;;7747238;77;27159;-53
2022/11/05 23:03:09;;;;;;;12.03;3.80;;;14.50;99.90;;;;;;7722679;75;26276;-51
2022/11/05 23:13:12;;;;;;;9.10;3.93;;;14.50;99.90;;;;;;7742343;76;26295;-53
2022/11/05 23:33:37;;;;;;;7.40;3.53;;;14.40;99.90;;;;;;7727405;77;26251;-52
2022/11/05 23:54:00;;;;;;;8.53;3.43;;;14.40;99.90;;;;;;7740800;77;26306;-54
